createdAt,value
2022-08-28T00:01:34.478Z,19.95
2022-08-28T00:04:02.475Z,19.81
2022-08-28T00:06:30.328Z,19.71
2022-08-28T00:08:59.009Z,19.66
2022-08-28T00:11:28.160Z,19.88
2022-08-28T00:13:56.796Z,20.06
2022-08-28T00:16:24.867Z,20.22
2022-08-28T00:18:54.444Z,19.95
2022-08-28T00:21:22.267Z,19.99
2022-08-28T00:23:50.097Z,20.06
2022-08-28T00:26:43.912Z,20.21
2022-08-28T00:29:12.161Z,20.13
2022-08-28T00:31:40.424Z,19.95
2022-08-28T00:34:09.192Z,20.09
2022-08-28T00:36:38.616Z,20.18
2022-08-28T00:39:07.748Z,20.12
2022-08-28T00:41:38.833Z,20.18
2022-08-28T00:44:17.307Z,20.26
2022-08-28T00:46:47.659Z,20.03
2022-08-28T00:49:17.771Z,19.79
2022-08-28T00:52:08.580Z,20.00
2022-08-28T00:54:54.438Z,19.89
2022-08-28T00:57:31.587Z,19.85
2022-08-28T01:00:01.606Z,19.66
2022-08-28T01:02:29.740Z,19.67
2022-08-28T01:04:57.684Z,19.74
2022-08-28T01:07:25.679Z,19.60
2022-08-28T01:09:55.680Z,19.68
2022-08-28T01:12:25.960Z,19.73
2022-08-28T01:15:00.104Z,19.84
2022-08-28T01:17:34.179Z,19.75
2022-08-28T01:20:06.768Z,19.67
2022-08-28T01:22:38.009Z,19.62
2022-08-28T01:25:13.258Z,19.68
2022-08-28T01:27:42.414Z,19.88
2022-08-28T01:30:12.475Z,19.58
2022-08-28T01:32:43.017Z,19.61
2022-08-28T01:35:14.881Z,19.65
2022-08-28T01:37:43.730Z,19.71
2022-08-28T01:40:17.701Z,19.51
2022-08-28T01:42:46.000Z,19.67
2022-08-28T01:45:17.778Z,19.55
2022-08-28T01:47:46.589Z,19.53
2022-08-28T01:50:18.152Z,19.51
2022-08-28T01:52:46.013Z,19.62
2022-08-28T01:55:15.301Z,19.73
2022-08-28T01:57:51.418Z,19.51
2022-08-28T02:00:20.275Z,19.52
2022-08-28T02:02:48.622Z,19.48
2022-08-28T02:05:16.426Z,19.49
2022-08-28T02:07:44.895Z,19.45
2022-08-28T02:10:12.935Z,19.40
2022-08-28T02:12:43.326Z,19.55
2022-08-28T02:15:11.914Z,19.49
2022-08-28T02:17:39.890Z,19.39
2022-08-28T02:20:09.376Z,19.33
2022-08-28T02:22:37.569Z,19.19
2022-08-28T02:25:07.304Z,19.30
2022-08-28T02:27:35.658Z,19.30
2022-08-28T02:30:05.797Z,19.09
2022-08-28T02:32:33.689Z,19.01
2022-08-28T02:35:01.895Z,19.12
2022-08-28T02:37:29.773Z,19.03
2022-08-28T02:39:59.129Z,18.99
2022-08-28T02:42:28.535Z,19.04
2022-08-28T02:44:56.333Z,18.99
2022-08-28T02:47:25.984Z,19.13
2022-08-28T02:49:53.810Z,18.96
2022-08-28T02:52:22.480Z,19.00
2022-08-28T02:54:50.359Z,19.16
2022-08-28T02:57:18.177Z,19.06
2022-08-28T02:59:47.743Z,18.89
2022-08-28T03:02:15.590Z,19.08
2022-08-28T03:04:44.794Z,19.04
2022-08-28T03:07:13.729Z,19.02
2022-08-28T03:09:43.628Z,19.09
2022-08-28T03:12:13.223Z,18.93
2022-08-28T03:14:42.436Z,18.88
2022-08-28T03:17:10.391Z,19.01
2022-08-28T03:19:38.246Z,19.18
2022-08-28T03:22:07.410Z,19.16
2022-08-28T03:24:34.242Z,18.96
2022-08-28T03:27:02.060Z,18.86
2022-08-28T03:29:29.944Z,18.91
2022-08-28T03:31:58.171Z,18.88
2022-08-28T03:34:25.947Z,18.75
2022-08-28T03:36:53.798Z,18.86
2022-08-28T03:39:23.107Z,18.63
2022-08-28T03:41:51.562Z,18.64
2022-08-28T03:44:19.371Z,18.68
2022-08-28T03:46:47.157Z,18.92
2022-08-28T03:49:15.185Z,18.74
2022-08-28T03:51:45.034Z,18.76
2022-08-28T03:54:12.864Z,18.88
2022-08-28T03:56:43.293Z,18.68
2022-08-28T03:59:10.976Z,18.83
2022-08-28T04:01:39.017Z,18.71
2022-08-28T04:04:07.121Z,18.80
2022-08-28T04:06:36.171Z,18.76
2022-08-28T04:09:04.553Z,18.78
2022-08-28T04:11:32.789Z,18.79
2022-08-28T04:14:01.954Z,18.67
2022-08-28T04:16:29.913Z,18.68
2022-08-28T04:18:59.391Z,18.78
2022-08-28T04:21:28.054Z,18.59
2022-08-28T04:23:56.567Z,18.93
2022-08-28T04:26:26.506Z,18.67
2022-08-28T04:28:55.983Z,18.72
2022-08-28T04:31:32.290Z,18.81
2022-08-28T04:34:01.450Z,18.70
2022-08-28T04:36:30.104Z,18.68
2022-08-28T04:38:58.549Z,18.93
2022-08-28T04:41:27.638Z,18.64
2022-08-28T04:43:57.630Z,18.72
2022-08-28T04:46:30.931Z,18.58
2022-08-28T04:48:59.483Z,18.69
2022-08-28T04:51:27.729Z,18.78
2022-08-28T04:53:55.524Z,18.80
2022-08-28T04:56:23.349Z,18.84
2022-08-28T04:58:51.255Z,18.84
2022-08-28T05:01:21.907Z,18.96
2022-08-28T05:03:55.193Z,18.76
2022-08-28T05:06:23.125Z,18.74
2022-08-28T05:08:51.064Z,18.96
2022-08-28T05:11:24.571Z,18.97
2022-08-28T05:14:03.662Z,18.87
2022-08-28T05:16:31.493Z,18.94
2022-08-28T05:19:02.261Z,19.08
2022-08-28T05:21:30.167Z,19.06
2022-08-28T05:23:59.198Z,19.08
2022-08-28T05:26:29.709Z,19.13
2022-08-28T05:28:59.486Z,19.15
2022-08-28T05:31:29.165Z,19.09
2022-08-28T05:33:57.117Z,19.10
2022-08-28T05:36:32.361Z,19.17
2022-08-28T05:39:02.166Z,19.21
2022-08-28T05:41:31.567Z,19.25
2022-08-28T05:44:00.712Z,19.31
2022-08-28T05:46:29.424Z,19.43
2022-08-28T05:48:59.609Z,19.35
2022-08-28T05:51:29.356Z,19.31
2022-08-28T05:53:58.350Z,19.44
2022-08-28T05:56:29.599Z,19.45
2022-08-28T05:58:57.697Z,19.41
2022-08-28T06:01:28.556Z,19.40
2022-08-28T06:03:58.938Z,19.43
2022-08-28T06:06:29.995Z,19.33
2022-08-28T06:08:59.328Z,19.55
2022-08-28T06:11:30.433Z,19.49
2022-08-28T06:13:59.637Z,19.68
2022-08-28T06:16:29.581Z,19.81
2022-08-28T06:18:57.799Z,19.75
2022-08-28T06:21:26.076Z,19.93
2022-08-28T06:23:55.280Z,19.82
2022-08-28T06:26:23.366Z,19.97
2022-08-28T06:28:51.276Z,19.90
2022-08-28T06:31:24.301Z,19.97
2022-08-28T06:33:54.558Z,19.82
2022-08-28T06:36:22.895Z,20.11
2022-08-28T06:38:51.118Z,19.99
2022-08-28T06:41:20.377Z,19.95
2022-08-28T06:43:48.971Z,19.84
2022-08-28T06:46:19.379Z,20.14
2022-08-28T06:48:47.067Z,20.08
2022-08-28T06:51:15.214Z,20.28
2022-08-28T06:53:45.132Z,20.14
2022-08-28T06:56:18.396Z,20.02
2022-08-28T06:58:58.705Z,20.30
2022-08-28T07:01:30.111Z,20.30
2022-08-28T07:04:02.278Z,20.43
2022-08-28T07:06:34.088Z,20.50
2022-08-28T07:09:02.296Z,20.59
2022-08-28T07:11:32.590Z,20.60
2022-08-28T07:14:02.176Z,20.79
2022-08-28T07:16:32.947Z,20.80
2022-08-28T07:19:03.704Z,20.80
2022-08-28T07:21:32.677Z,20.93
2022-08-28T07:24:05.524Z,21.05
2022-08-28T07:26:33.593Z,21.11
2022-08-28T07:29:10.934Z,21.35
2022-08-28T07:31:41.199Z,21.49
2022-08-28T07:34:10.590Z,21.46
2022-08-28T07:36:38.886Z,21.49
2022-08-28T07:39:07.476Z,21.55
2022-08-28T07:41:39.097Z,21.55
2022-08-28T07:44:28.740Z,21.53
2022-08-28T07:46:57.959Z,21.61
2022-08-28T07:49:26.458Z,21.68
2022-08-28T07:51:54.643Z,21.72
2022-08-28T07:54:23.076Z,21.56
2022-08-28T07:56:52.638Z,21.55
2022-08-28T07:59:22.099Z,21.75
2022-08-28T08:01:51.854Z,21.95
2022-08-28T08:04:21.041Z,21.75
2022-08-28T08:06:50.073Z,21.88
2022-08-28T08:09:22.222Z,22.02
2022-08-28T08:11:50.367Z,22.03
2022-08-28T08:14:19.157Z,22.10
2022-08-28T08:16:49.267Z,22.20
2022-08-28T08:19:19.068Z,22.15
2022-08-28T08:21:53.214Z,21.97
2022-08-28T08:24:26.065Z,22.63
2022-08-28T08:26:59.484Z,22.79
2022-08-28T08:29:29.763Z,22.91
2022-08-28T08:32:04.920Z,22.73
2022-08-28T08:34:33.428Z,22.83
2022-08-28T08:37:01.636Z,22.99
2022-08-28T08:39:31.787Z,23.02
2022-08-28T08:42:05.704Z,23.13
2022-08-28T08:44:40.367Z,22.88
2022-08-28T08:47:15.170Z,22.93
2022-08-28T08:49:50.356Z,22.58
2022-08-28T08:52:35.094Z,23.35
2022-08-28T08:55:07.694Z,23.62
2022-08-28T09:02:57.549Z,24.17
2022-08-28T09:06:30.363Z,24.15
2022-08-28T09:09:20.466Z,24.20
2022-08-28T09:11:57.026Z,23.77
2022-08-28T09:14:37.210Z,23.45
2022-08-28T09:17:06.880Z,23.67
2022-08-28T09:19:36.717Z,23.71
2022-08-28T09:22:04.665Z,24.05
2022-08-28T09:24:36.849Z,23.77
2022-08-28T09:27:11.087Z,23.73
2022-08-28T09:29:43.583Z,24.53
2022-08-28T09:32:23.270Z,25.18
2022-08-28T09:35:07.709Z,25.46
2022-08-28T09:37:37.343Z,24.93
2022-08-28T09:40:25.311Z,24.63
2022-08-28T09:43:23.939Z,24.87
2022-08-28T09:45:59.262Z,24.55
2022-08-28T09:48:34.631Z,24.29
2022-08-28T09:51:06.213Z,24.08
2022-08-28T09:53:37.571Z,24.25
2022-08-28T09:56:12.754Z,24.48
2022-08-28T09:58:44.491Z,24.86
2022-08-28T10:01:27.542Z,24.74
2022-08-28T10:04:09.826Z,25.13
2022-08-28T10:06:40.064Z,24.61
2022-08-28T10:09:23.870Z,24.61
2022-08-28T10:11:59.033Z,25.12
2022-08-28T10:14:41.262Z,25.05
2022-08-28T10:17:18.910Z,25.31
2022-08-28T10:19:59.326Z,25.88
2022-08-28T10:22:40.814Z,26.23
2022-08-28T10:25:20.978Z,25.85
2022-08-28T10:27:53.890Z,25.29
2022-08-28T10:30:24.272Z,25.74
2022-08-28T10:33:09.965Z,25.34
2022-08-28T10:35:50.699Z,25.38
2022-08-28T10:38:32.009Z,25.21
2022-08-28T10:41:04.150Z,25.35
2022-08-28T10:43:36.665Z,25.89
2022-08-28T10:46:11.458Z,26.79
2022-08-28T10:48:47.525Z,26.53
2022-08-28T10:51:34.943Z,26.42
2022-08-28T10:54:09.431Z,25.82
2022-08-28T10:56:42.020Z,25.79
2022-08-28T10:59:09.843Z,25.78
2022-08-28T11:01:41.416Z,25.43
2022-08-28T11:04:23.544Z,25.83
2022-08-28T11:06:56.845Z,26.49
2022-08-28T11:09:34.060Z,26.12
2022-08-28T11:12:03.955Z,26.01
2022-08-28T11:14:35.584Z,25.68
2022-08-28T11:17:40.942Z,26.00
2022-08-28T11:20:15.341Z,26.28
2022-08-28T11:22:48.049Z,26.70
2022-08-28T11:25:26.543Z,26.80
2022-08-28T11:28:16.239Z,26.82
2022-08-28T11:30:45.810Z,26.76
2022-08-28T11:33:37.710Z,27.08
2022-08-28T11:36:09.896Z,27.44
2022-08-28T11:39:04.592Z,26.30
2022-08-28T11:41:36.381Z,26.54
2022-08-28T11:44:28.256Z,26.58
2022-08-28T11:47:52.096Z,27.45
2022-08-28T11:50:24.953Z,27.09
2022-08-28T11:53:13.632Z,27.65
2022-08-28T11:56:10.427Z,27.57
2022-08-28T11:58:48.792Z,27.15
2022-08-28T12:01:28.444Z,26.43
2022-08-28T12:03:59.433Z,27.24
2022-08-28T12:06:47.937Z,27.96
2022-08-28T12:09:38.402Z,27.19
2022-08-28T12:12:09.698Z,26.63
2022-08-28T12:15:10.392Z,27.65
2022-08-28T12:17:50.449Z,28.49
2022-08-28T12:20:30.997Z,28.15
2022-08-28T12:23:00.650Z,28.06
2022-08-28T12:25:36.245Z,28.05
2022-08-28T12:28:16.701Z,28.74
2022-08-28T12:30:55.275Z,28.75
2022-08-28T12:33:33.014Z,28.84
2022-08-28T12:36:03.706Z,28.99
2022-08-28T12:38:33.889Z,29.33
2022-08-28T12:41:03.852Z,29.32
2022-08-28T12:43:40.919Z,27.66
2022-08-28T12:46:28.076Z,27.47
2022-08-28T12:48:58.661Z,27.24
2022-08-28T12:51:28.288Z,28.79
2022-08-28T12:53:58.575Z,28.65
2022-08-28T12:56:30.032Z,28.68
2022-08-28T12:59:27.106Z,29.24
2022-08-28T13:02:03.555Z,29.01
2022-08-28T13:04:35.587Z,29.61
2022-08-28T13:07:10.529Z,28.66
2022-08-28T13:09:44.034Z,28.40
2022-08-28T13:12:20.762Z,29.14
2022-08-28T13:14:50.834Z,28.49
2022-08-28T13:17:39.759Z,29.14
2022-08-28T13:20:08.883Z,29.02
2022-08-28T13:22:41.673Z,28.22
2022-08-28T13:25:22.636Z,28.16
2022-08-28T13:27:58.134Z,27.30
2022-08-28T13:30:29.664Z,27.70
2022-08-28T13:33:01.654Z,27.65
2022-08-28T13:35:40.462Z,27.26
2022-08-28T13:38:12.451Z,27.99
2022-08-28T13:40:58.055Z,27.44
2022-08-28T13:43:28.352Z,27.21
2022-08-28T13:45:56.166Z,27.93
2022-08-28T13:48:28.339Z,27.51
2022-08-28T13:51:05.194Z,27.16
2022-08-28T13:53:38.528Z,27.56
2022-08-28T13:56:06.797Z,27.94
2022-08-28T13:58:34.780Z,28.13
2022-08-28T14:01:03.131Z,27.46
2022-08-28T14:03:38.351Z,27.12
2022-08-28T14:06:09.221Z,27.31
2022-08-28T14:08:37.062Z,28.13
2022-08-28T14:11:04.982Z,28.15
2022-08-28T14:13:32.756Z,27.26
2022-08-28T14:16:00.653Z,27.66
2022-08-28T14:18:28.992Z,27.53
2022-08-28T14:20:58.106Z,27.64
2022-08-28T14:23:25.917Z,27.25
2022-08-28T14:25:53.740Z,27.79
2022-08-28T14:28:21.592Z,26.95
2022-08-28T14:30:51.380Z,27.24
2022-08-28T14:33:20.705Z,27.69
2022-08-28T14:35:49.862Z,27.49
2022-08-28T14:38:19.084Z,27.76
2022-08-28T14:40:46.898Z,26.85
2022-08-28T14:43:15.730Z,26.89
2022-08-28T14:45:45.614Z,27.27
2022-08-28T14:48:14.385Z,27.62
2022-08-28T14:50:43.152Z,27.17
2022-08-28T14:53:11.581Z,27.29
2022-08-28T14:55:42.132Z,27.06
2022-08-28T14:58:09.940Z,27.77
2022-08-28T15:00:42.137Z,27.78
2022-08-28T15:03:10.725Z,27.86
2022-08-28T15:05:39.253Z,27.67
2022-08-28T15:08:08.349Z,27.32
2022-08-28T15:10:38.462Z,27.80
2022-08-28T15:13:09.162Z,27.77
2022-08-28T15:15:39.287Z,28.22
2022-08-28T15:18:07.979Z,27.83
2022-08-28T15:20:39.529Z,27.83
2022-08-28T15:23:07.370Z,28.72
2022-08-28T15:25:35.469Z,28.37
2022-08-28T15:28:03.778Z,28.06
2022-08-28T15:30:33.356Z,28.29
2022-08-28T15:33:01.159Z,29.05
2022-08-28T15:35:29.118Z,28.23
2022-08-28T15:37:57.152Z,28.20
2022-08-28T15:40:43.316Z,28.31
2022-08-28T15:43:12.156Z,27.80
2022-08-28T15:45:43.209Z,27.88
2022-08-28T15:48:13.409Z,28.17
2022-08-28T15:50:42.863Z,28.35
2022-08-28T15:53:13.095Z,27.58
2022-08-28T15:55:42.373Z,28.51
2022-08-28T15:58:14.195Z,27.94
2022-08-28T16:00:45.291Z,28.15
2022-08-28T16:03:14.328Z,27.87
2022-08-28T16:05:43.159Z,26.92
2022-08-28T16:08:13.453Z,27.70
2022-08-28T16:10:42.382Z,28.02
2022-08-28T16:13:12.426Z,28.04
2022-08-28T16:15:41.245Z,27.35
2022-08-28T16:18:13.093Z,27.50
2022-08-28T16:20:45.355Z,27.19
2022-08-28T16:23:14.863Z,27.10
2022-08-28T16:25:43.528Z,27.07
2022-08-28T16:28:15.203Z,26.99
2022-08-28T16:30:46.013Z,26.92
2022-08-28T16:33:20.312Z,26.98
2022-08-28T16:35:56.274Z,26.71
2022-08-28T16:38:26.173Z,27.08
2022-08-28T16:40:54.112Z,26.50
2022-08-28T16:43:21.908Z,26.60
2022-08-28T16:45:50.994Z,26.94
2022-08-28T16:48:20.464Z,26.83
2022-08-28T16:50:48.302Z,27.16
2022-08-28T16:53:17.063Z,26.91
2022-08-28T16:55:54.994Z,26.59
2022-08-28T16:58:23.155Z,26.87
2022-08-28T17:00:52.828Z,26.63
2022-08-28T17:03:26.482Z,26.41
2022-08-28T17:05:56.759Z,26.71
2022-08-28T17:08:24.671Z,26.63
2022-08-28T17:10:52.741Z,26.50
2022-08-28T17:13:20.555Z,26.23
2022-08-28T17:15:48.430Z,26.55
2022-08-28T17:18:16.301Z,26.24
2022-08-28T17:21:02.893Z,26.39
2022-08-28T17:23:31.189Z,26.17
2022-08-28T17:26:08.696Z,25.92
2022-08-28T17:28:36.674Z,25.52
2022-08-28T17:31:04.593Z,25.55
2022-08-28T17:33:32.511Z,25.42
2022-08-28T17:36:01.710Z,25.24
2022-08-28T17:38:30.126Z,25.34
2022-08-28T17:40:58.379Z,25.32
2022-08-28T17:43:26.192Z,25.18
2022-08-28T17:45:54.013Z,25.09
2022-08-28T17:48:21.751Z,24.98
2022-08-28T17:50:49.576Z,24.93
2022-08-28T17:53:18.802Z,24.83
2022-08-28T17:55:47.062Z,24.63
2022-08-28T17:58:15.006Z,24.56
2022-08-28T18:00:43.892Z,24.21
2022-08-28T18:03:11.777Z,24.15
2022-08-28T18:05:41.163Z,23.91
2022-08-28T18:08:09.509Z,23.79
2022-08-28T18:10:38.908Z,23.85
2022-08-28T18:13:07.390Z,23.89
2022-08-28T18:15:36.858Z,23.87
2022-08-28T18:18:06.780Z,23.81
2022-08-28T18:20:37.912Z,23.77
2022-08-28T18:23:06.076Z,23.71
2022-08-28T18:25:51.007Z,23.77
2022-08-28T18:28:22.739Z,23.70
2022-08-28T18:30:52.746Z,23.57
2022-08-28T18:33:23.172Z,23.50
2022-08-28T18:35:53.722Z,23.38
2022-08-28T18:38:28.790Z,23.18
2022-08-28T18:40:57.366Z,23.13
2022-08-28T18:43:26.788Z,22.90
2022-08-28T18:45:55.209Z,22.89
2022-08-28T18:48:24.267Z,22.82
2022-08-28T18:50:52.452Z,22.79
2022-08-28T18:53:22.726Z,22.69
2022-08-28T18:55:51.154Z,22.91
2022-08-28T18:58:22.276Z,22.65
2022-08-28T19:00:52.693Z,22.50
2022-08-28T19:03:24.220Z,22.63
2022-08-28T19:05:52.177Z,22.50
2022-08-28T19:08:20.132Z,22.43
2022-08-28T19:10:48.163Z,22.52
2022-08-28T19:13:16.079Z,22.45
2022-08-28T19:15:44.042Z,22.36
2022-08-28T19:18:13.521Z,22.32
2022-08-28T19:20:41.503Z,22.22
2022-08-28T19:23:09.314Z,22.22
2022-08-28T19:25:37.205Z,22.27
2022-08-28T19:28:05.201Z,22.51
2022-08-28T19:30:35.724Z,22.35
2022-08-28T19:33:05.491Z,22.18
2022-08-28T19:35:35.903Z,22.32
2022-08-28T19:38:03.603Z,22.35
2022-08-28T19:40:31.728Z,22.09
2022-08-28T19:43:00.891Z,22.15
2022-08-28T19:45:30.216Z,22.17
2022-08-28T19:47:58.754Z,22.16
2022-08-28T19:50:27.190Z,21.85
2022-08-28T19:52:56.382Z,21.84
2022-08-28T19:55:26.055Z,21.53
2022-08-28T19:57:54.800Z,21.54
2022-08-28T20:00:24.817Z,21.19
2022-08-28T20:02:53.436Z,21.33
2022-08-28T20:05:22.501Z,21.22
2022-08-28T20:07:51.456Z,21.13
2022-08-28T20:10:21.374Z,21.14
2022-08-28T20:12:49.373Z,21.14
2022-08-28T20:15:19.647Z,20.97
2022-08-28T20:17:50.195Z,20.97
2022-08-28T20:20:18.868Z,20.73
2022-08-28T20:22:46.723Z,20.68
2022-08-28T20:25:18.184Z,20.73
2022-08-28T20:27:47.216Z,20.96
2022-08-28T20:30:15.298Z,20.46
2022-08-28T20:32:43.377Z,20.38
2022-08-28T20:35:13.198Z,20.35
2022-08-28T20:37:44.951Z,20.32
2022-08-28T20:40:15.911Z,20.23
2022-08-28T20:42:44.026Z,20.17
2022-08-28T20:45:15.082Z,20.13
2022-08-28T20:47:42.964Z,20.26
2022-08-28T20:50:11.745Z,20.08
2022-08-28T20:52:40.016Z,20.10
2022-08-28T20:55:09.247Z,19.95
2022-08-28T20:57:37.571Z,19.92
2022-08-28T21:00:06.497Z,19.98
2022-08-28T21:02:35.989Z,19.95
2022-08-28T21:05:04.927Z,19.86
2022-08-28T21:07:33.790Z,19.72
2022-08-28T21:10:05.478Z,19.57
2022-08-28T21:12:35.916Z,19.46
2022-08-28T21:15:04.465Z,19.37
2022-08-28T21:17:32.301Z,19.31
2022-08-28T21:20:04.391Z,19.34
2022-08-28T21:22:32.963Z,19.39
2022-08-28T21:25:04.184Z,19.41
2022-08-28T21:27:32.797Z,19.28
2022-08-28T21:30:01.531Z,19.18
2022-08-28T21:32:30.516Z,19.07
2022-08-28T21:35:00.699Z,18.93
2022-08-28T21:37:31.124Z,19.04
2022-08-28T21:39:59.460Z,19.07
2022-08-28T21:42:27.851Z,18.79
2022-08-28T21:44:55.669Z,18.69
2022-08-28T21:47:24.639Z,18.69
2022-08-28T21:49:53.287Z,18.70
2022-08-28T21:52:22.534Z,18.79
2022-08-28T21:54:56.861Z,18.75
2022-08-28T21:57:24.715Z,18.70
2022-08-28T21:59:52.535Z,18.43
2022-08-28T22:02:20.739Z,18.48
2022-08-28T22:04:49.300Z,18.17
2022-08-28T22:07:17.434Z,18.27
2022-08-28T22:09:45.264Z,18.31
2022-08-28T22:12:14.526Z,18.29
2022-08-28T22:14:42.366Z,18.35
2022-08-28T22:17:11.537Z,18.36
2022-08-28T22:19:40.523Z,18.12
2022-08-28T22:22:37.477Z,18.04
2022-08-28T22:25:06.145Z,18.06
2022-08-28T22:27:35.550Z,17.89
2022-08-28T22:30:03.542Z,17.81
2022-08-28T22:32:31.358Z,17.65
2022-08-28T22:34:59.166Z,17.55
2022-08-28T22:37:26.947Z,17.78
2022-08-28T22:39:54.785Z,17.82
2022-08-28T22:42:23.052Z,17.85
2022-08-28T22:44:52.200Z,17.94
2022-08-28T22:47:20.073Z,17.86
2022-08-28T22:49:47.966Z,17.80
2022-08-28T22:52:16.384Z,17.79
2022-08-28T22:54:44.274Z,17.66
2022-08-28T22:57:12.125Z,17.61
2022-08-28T22:59:39.942Z,17.49
2022-08-28T23:02:09.174Z,17.42
2022-08-28T23:04:37.281Z,17.40
2022-08-28T23:07:05.625Z,17.52
2022-08-28T23:09:36.022Z,17.48
2022-08-28T23:12:04.107Z,17.46
2022-08-28T23:14:32.004Z,17.33
2022-08-28T23:17:00.018Z,17.47
2022-08-28T23:19:30.481Z,17.37
2022-08-28T23:21:58.295Z,17.27
2022-08-28T23:24:26.464Z,17.15
2022-08-28T23:26:54.228Z,17.05
2022-08-28T23:29:22.032Z,17.11
2022-08-28T23:31:50.107Z,17.04
2022-08-28T23:34:17.944Z,17.02
2022-08-28T23:36:47.076Z,17.06
2022-08-28T23:39:15.217Z,17.03
2022-08-28T23:41:43.350Z,16.98
2022-08-28T23:44:11.245Z,16.79
2022-08-28T23:46:41.338Z,16.77
2022-08-28T23:49:11.020Z,16.72
2022-08-28T23:51:38.965Z,16.82
2022-08-28T23:54:09.099Z,16.84
2022-08-28T23:56:37.942Z,16.65
2022-08-28T23:59:06.979Z,16.72
